Time;durP1;ratioP1;P1;durP2;ratioP2;P2;SDS_P1;SDS_P2;PMS_P1;PMS_P2;Temp;Humidity;BMP_temperature;BMP_pressure;BME280_temperature;BME280_humidity;BME280_pressure;Samples;Min_cycle;Max_cycle;Signal;HPM_P1;HPM_P2
2023/11/01 00:00:17;;;;;;;17.63;10.38;;;15.60;99.90;;;;;;5035340;28;20397;-78
2023/11/01 00:02:44;;;;;;;16.90;11.35;;;15.60;99.90;;;;;;5031053;28;20049;-76
2023/11/01 00:05:11;;;;;;;18.27;11.57;;;15.60;99.90;;;;;;5057002;28;20492;-75
2023/11/01 00:07:39;;;;;;;18.92;11.25;;;15.50;99.90;;;;;;5015115;28;20073;-76
2023/11/01 00:10:06;;;;;;;16.67;10.15;;;15.50;99.90;;;;;;5034394;28;20128;-77
2023/11/01 00:12:33;;;;;;;20.58;11.93;;;15.50;99.90;;;;;;5041823;28;20047;-77
2023/11/01 00:15:01;;;;;;;19.90;10.90;;;15.60;99.90;;;;;;5033694;28;20041;-75
2023/11/01 00:17:30;;;;;;;15.65;10.07;;;15.60;99.90;;;;;;5038737;28;20049;-78
2023/11/01 00:19:59;;;;;;;18.83;11.05;;;15.60;99.90;;;;;;5041426;28;20094;-75
2023/11/01 00:22:26;;;;;;;16.13;10.38;;;15.60;99.90;;;;;;5037286;28;20045;-77
2023/11/01 00:24:53;;;;;;;18.23;10.05;;;15.60;99.90;;;;;;5039743;28;20044;-77
2023/11/01 00:27:20;;;;;;;15.98;10.75;;;15.60;99.90;;;;;;5042670;28;20391;-77
2023/11/01 00:29:48;;;;;;;22.83;11.50;;;15.60;99.90;;;;;;5040076;28;20068;-75
2023/11/01 00:32:16;;;;;;;21.42;11.45;;;15.40;99.90;;;;;;5030371;28;20077;-75
2023/11/01 00:34:43;;;;;;;17.55;10.27;;;15.40;99.90;;;;;;5054635;28;20037;-77
2023/11/01 00:37:12;;;;;;;18.00;11.38;;;15.40;99.90;;;;;;5031265;28;20184;-76
2023/11/01 00:39:39;;;;;;;20.00;11.27;;;15.30;99.90;;;;;;5036279;28;20030;-77
2023/11/01 00:42:07;;;;;;;29.00;16.25;;;15.30;99.90;;;;;;5036913;28;20080;-77
2023/11/01 00:44:34;;;;;;;22.55;12.70;;;15.30;99.90;;;;;;5041526;28;20400;-76
2023/11/01 00:47:01;;;;;;;30.23;11.20;;;15.30;99.90;;;;;;5020065;28;20057;-78
2023/11/01 00:49:28;;;;;;;16.52;10.50;;;15.30;99.90;;;;;;5040818;28;20435;-77
2023/11/01 00:51:56;;;;;;;16.27;9.15;;;15.30;99.90;;;;;;5037567;28;20056;-78
2023/11/01 00:54:24;;;;;;;17.05;8.55;;;15.30;99.90;;;;;;5022434;28;20132;-77
2023/11/01 00:56:51;;;;;;;13.45;8.15;;;15.40;99.90;;;;;;5005181;28;20033;-78
2023/11/01 00:59:19;;;;;;;14.50;8.10;;;15.20;99.90;;;;;;5023865;28;20053;-77
2023/11/01 01:01:46;;;;;;;12.55;8.45;;;15.10;99.90;;;;;;5018806;28;20511;-77
2023/11/01 01:04:14;;;;;;;13.15;8.20;;;15.00;99.90;;;;;;5037549;28;20045;-78
2023/11/01 01:06:43;;;;;;;11.05;8.18;;;14.90;99.90;;;;;;5016867;28;20041;-78
2023/11/01 01:09:12;;;;;;;13.25;8.27;;;14.80;99.90;;;;;;5024531;28;20401;-75
2023/11/01 01:11:39;;;;;;;16.98;9.10;;;14.80;99.90;;;;;;5037271;28;20033;-75
2023/11/01 01:14:06;;;;;;;13.88;8.07;;;14.90;99.90;;;;;;5020466;28;20044;-77
2023/11/01 01:16:34;;;;;;;19.27;9.73;;;15.00;99.90;;;;;;5032124;28;20059;-76
2023/11/01 01:19:03;;;;;;;15.80;10.02;;;15.10;99.90;;;;;;5039113;28;20219;-77
2023/11/01 01:21:30;;;;;;;14.13;10.10;;;15.10;99.90;;;;;;5040071;28;20123;-76
2023/11/01 01:23:58;;;;;;;15.77;9.73;;;15.10;99.90;;;;;;5038799;28;20477;-76
2023/11/01 01:26:25;;;;;;;16.25;9.43;;;15.20;99.90;;;;;;5038083;28;20384;-77
2023/11/01 01:28:53;;;;;;;23.75;10.50;;;15.10;99.90;;;;;;5038443;28;20049;-75
2023/11/01 01:31:20;;;;;;;16.00;8.98;;;15.00;99.90;;;;;;5038518;28;20123;-74
2023/11/01 01:33:47;;;;;;;16.90;9.85;;;14.90;99.90;;;;;;5036875;28;20459;-75
2023/11/01 01:36:14;;;;;;;15.40;10.02;;;15.00;99.90;;;;;;5040801;28;20041;-76
2023/11/01 01:38:41;;;;;;;17.02;9.73;;;15.00;99.90;;;;;;5033760;28;20080;-75
2023/11/01 01:41:09;;;;;;;21.10;10.27;;;14.90;99.90;;;;;;5049434;28;20091;-75
2023/11/01 01:43:36;;;;;;;18.85;10.93;;;14.90;99.90;;;;;;5031319;28;20029;-75
2023/11/01 01:46:07;;;;;;;16.20;10.10;;;14.90;99.90;;;;;;5036828;28;20108;-77
2023/11/01 01:48:38;;;;;;;14.40;9.40;;;15.00;99.90;;;;;;5041007;28;20191;-74
2023/11/01 01:51:08;;;;;;;13.88;9.82;;;14.90;99.90;;;;;;5039328;28;20378;-74
2023/11/01 01:53:43;;;;;;;18.10;10.25;;;14.90;99.90;;;;;;5038127;28;20480;-73
2023/11/01 01:56:13;;;;;;;16.58;9.98;;;14.80;99.90;;;;;;5037713;28;20068;-75
2023/11/01 01:58:41;;;;;;;17.57;10.03;;;14.70;99.90;;;;;;5033762;28;20041;-74
2023/11/01 02:01:09;;;;;;;14.65;9.82;;;14.70;99.90;;;;;;5020160;28;20041;-77
2023/11/01 02:03:37;;;;;;;16.10;9.07;;;14.60;99.90;;;;;;5039368;28;20033;-74
2023/11/01 02:06:06;;;;;;;14.07;9.85;;;14.60;99.90;;;;;;5043953;28;20037;-73
2023/11/01 02:08:33;;;;;;;16.92;10.88;;;14.60;99.90;;;;;;5041035;28;20033;-74
2023/11/01 02:11:00;;;;;;;24.40;11.85;;;14.60;99.90;;;;;;5038394;28;20044;-74
2023/11/01 02:13:28;;;;;;;17.60;10.80;;;14.50;99.90;;;;;;5037087;28;20095;-76
2023/11/01 02:15:56;;;;;;;17.55;10.45;;;14.50;99.90;;;;;;5040068;28;20048;-75
2023/11/01 02:18:23;;;;;;;16.08;9.85;;;14.50;99.90;;;;;;5042220;28;20072;-75
2023/11/01 02:20:52;;;;;;;14.95;11.10;;;14.50;99.90;;;;;;5038169;28;20060;-75
2023/11/01 02:23:33;;;;;;;15.63;10.65;;;14.40;99.90;;;;;;5038631;28;20559;-74
2023/11/01 02:26:01;;;;;;;21.25;11.23;;;14.40;99.90;;;;;;5041411;28;20041;-75
2023/11/01 02:28:28;;;;;;;18.50;11.02;;;14.30;99.90;;;;;;5025020;28;20538;-75
2023/11/01 02:30:56;;;;;;;21.13;12.02;;;14.20;99.90;;;;;;5038948;28;20092;-75
2023/11/01 02:33:23;;;;;;;20.55;11.90;;;14.20;99.90;;;;;;5042265;28;20094;-73
2023/11/01 02:35:51;;;;;;;20.55;12.02;;;14.20;99.90;;;;;;5040259;28;20052;-74
2023/11/01 02:38:18;;;;;;;18.80;12.05;;;14.00;99.90;;;;;;5040729;28;20497;-75
2023/11/01 02:40:45;;;;;;;19.00;12.43;;;14.00;99.90;;;;;;5026334;28;20090;-75
2023/11/01 02:43:13;;;;;;;18.92;12.80;;;14.10;99.90;;;;;;5040481;28;20038;-75
2023/11/01 02:45:41;;;;;;;22.23;12.95;;;14.10;99.90;;;;;;5037043;28;20408;-75
2023/11/01 02:48:08;;;;;;;23.15;13.27;;;14.00;99.90;;;;;;5038335;28;20057;-75
2023/11/01 02:50:35;;;;;;;19.92;11.88;;;13.90;99.90;;;;;;5057776;28;20051;-74
2023/11/01 02:53:03;;;;;;;21.23;13.27;;;14.00;99.90;;;;;;5042167;28;20052;-75
2023/11/01 02:55:30;;;;;;;21.95;12.45;;;14.10;99.90;;;;;;5042717;28;20483;-74
2023/11/01 02:57:57;;;;;;;20.70;12.80;;;14.00;99.90;;;;;;5041761;28;20660;-75
2023/11/01 03:00:24;;;;;;;19.95;13.05;;;13.90;99.90;;;;;;5034803;28;20048;-74
2023/11/01 03:02:56;;;;;;;21.42;13.32;;;13.80;99.90;;;;;;5041527;28;20136;-76
2023/11/01 03:05:28;;;;;;;25.77;13.80;;;13.90;99.90;;;;;;5040626;28;20044;-75
2023/11/01 03:07:56;;;;;;;26.50;13.75;;;13.90;99.90;;;;;;5022240;28;20067;-77
2023/11/01 03:10:23;;;;;;;18.92;14.55;;;13.90;99.90;;;;;;5040645;28;20071;-75
2023/11/01 03:12:51;;;;;;;20.73;13.68;;;13.90;99.90;;;;;;5024206;28;20053;-76
2023/11/01 03:15:18;;;;;;;24.67;14.30;;;13.90;99.90;;;;;;5039679;28;20041;-75
2023/11/01 03:17:47;;;;;;;25.00;13.65;;;13.70;99.90;;;;;;5036211;28;20049;-75
2023/11/01 03:20:14;;;;;;;22.98;13.65;;;13.70;99.90;;;;;;5042360;28;20439;-75
2023/11/01 03:22:42;;;;;;;23.17;14.13;;;13.80;99.90;;;;;;5039622;28;20045;-74
2023/11/01 03:25:09;;;;;;;20.42;13.55;;;13.70;99.90;;;;;;5022927;28;20041;-76
2023/11/01 03:27:36;;;;;;;28.20;15.07;;;13.80;99.90;;;;;;5041379;28;20131;-77
2023/11/01 03:30:04;;;;;;;21.23;13.23;;;13.70;99.90;;;;;;5039794;28;20119;-74
2023/11/01 03:32:31;;;;;;;22.90;13.93;;;13.70;99.90;;;;;;5040396;28;20042;-74
2023/11/01 03:34:58;;;;;;;20.00;12.43;;;13.70;99.90;;;;;;5040135;28;20041;-74
2023/11/01 03:37:26;;;;;;;26.08;12.85;;;13.70;99.90;;;;;;5037948;28;20445;-73
2023/11/01 03:39:53;;;;;;;20.58;12.50;;;13.70;99.90;;;;;;5056295;28;20052;-74
2023/11/01 03:42:21;;;;;;;19.75;12.52;;;13.70;99.90;;;;;;5043531;28;20037;-73
2023/11/01 03:44:50;;;;;;;22.77;12.77;;;13.60;99.90;;;;;;5042388;28;20870;-75
2023/11/01 03:47:18;;;;;;;24.48;12.10;;;13.50;99.90;;;;;;5040320;28;20069;-75
2023/11/01 03:49:45;;;;;;;19.13;12.48;;;13.40;99.90;;;;;;5037526;28;20068;-74
2023/11/01 03:52:12;;;;;;;20.77;12.38;;;13.50;99.90;;;;;;5051517;28;20435;-74
2023/11/01 03:54:40;;;;;;;18.10;11.48;;;13.50;99.90;;;;;;5041874;28;20095;-74
2023/11/01 03:57:07;;;;;;;17.88;11.85;;;13.60;99.90;;;;;;5040499;28;20041;-75
2023/11/01 03:59:34;;;;;;;21.95;12.80;;;13.40;99.90;;;;;;5040391;28;20116;-73
2023/11/01 04:02:02;;;;;;;18.98;12.30;;;13.40;99.90;;;;;;5040221;28;20045;-73
2023/11/01 04:04:29;;;;;;;22.92;13.40;;;13.40;99.90;;;;;;5041355;28;20092;-74
2023/11/01 04:06:56;;;;;;;21.77;13.45;;;13.50;99.90;;;;;;5042489;28;20068;-74
2023/11/01 04:09:24;;;;;;;23.13;12.23;;;13.50;99.90;;;;;;5040263;28;20037;-74
2023/11/01 04:11:51;;;;;;;20.25;12.95;;;13.50;99.90;;;;;;5039176;28;20045;-73
2023/11/01 04:14:19;;;;;;;23.40;13.50;;;13.50;99.90;;;;;;5041226;28;20074;-73
2023/11/01 04:16:46;;;;;;;22.52;12.75;;;13.40;99.90;;;;;;5039480;28;20033;-74
2023/11/01 04:19:14;;;;;;;18.85;13.15;;;13.30;99.90;;;;;;5037133;28;20419;-75
2023/11/01 04:21:44;;;;;;;;;;;13.20;99.90;;;;;;5049517;28;20151;-75
2023/11/01 04:24:11;;;;;;;19.95;12.95;;;13.30;99.90;;;;;;5039283;28;20265;-74
2023/11/01 04:26:39;;;;;;;24.73;13.82;;;13.30;99.90;;;;;;5041555;28;20136;-75
2023/11/01 04:29:06;;;;;;;20.27;13.05;;;13.20;99.90;;;;;;5022021;28;20041;-74
2023/11/01 04:31:33;;;;;;;24.55;13.15;;;13.30;99.90;;;;;;5034840;28;20129;-72
2023/11/01 04:34:00;;;;;;;20.77;12.88;;;13.30;99.90;;;;;;5020401;28;20034;-73
2023/11/01 04:36:28;;;;;;;20.45;14.50;;;13.40;99.90;;;;;;5041448;28;20049;-74
2023/11/01 04:38:57;;;;;;;18.92;13.30;;;13.30;99.90;;;;;;5019521;28;20477;-74
2023/11/01 04:41:27;;;;;;;21.23;13.75;;;13.30;99.90;;;;;;5037738;28;20412;-73
2023/11/01 04:43:55;;;;;;;20.05;13.75;;;13.20;99.90;;;;;;5019482;28;20061;-74
2023/11/01 04:46:23;;;;;;;19.10;13.52;;;13.10;99.90;;;;;;5036002;28;20047;-73
2023/11/01 04:48:50;;;;;;;20.15;12.40;;;13.20;99.90;;;;;;5039771;28;20037;-72
2023/11/01 04:51:17;;;;;;;24.17;13.82;;;13.20;99.90;;;;;;5038237;28;20086;-74
2023/11/01 04:53:46;;;;;;;22.70;12.98;;;13.10;99.90;;;;;;5035095;28;20049;-74
2023/11/01 04:56:13;;;;;;;20.95;13.13;;;13.20;99.90;;;;;;5034362;28;20045;-72
2023/11/01 04:58:40;;;;;;;21.95;12.60;;;13.30;99.90;;;;;;5036580;28;20045;-74
2023/11/01 05:01:08;;;;;;;19.15;11.50;;;13.20;99.90;;;;;;5039784;28;20493;-74
2023/11/01 05:03:37;;;;;;;19.63;10.75;;;13.20;99.90;;;;;;5041124;28;20640;-74
2023/11/01 05:06:05;;;;;;;15.57;10.98;;;13.20;99.90;;;;;;5040296;28;20400;-74
2023/11/01 05:08:34;;;;;;;18.10;10.38;;;13.20;99.90;;;;;;5039556;28;20136;-74
2023/11/01 05:11:02;;;;;;;15.60;10.23;;;13.20;99.90;;;;;;5021232;28;20509;-74
2023/11/01 05:13:46;;;;;;;14.98;10.10;;;13.10;99.90;;;;;;5034525;28;20391;-76
2023/11/01 05:16:14;;;;;;;20.35;11.05;;;13.00;99.90;;;;;;5023725;28;20075;-75
2023/11/01 05:18:41;;;;;;;17.35;11.23;;;13.00;99.90;;;;;;5039628;28;20033;-75
2023/11/01 05:21:08;;;;;;;14.73;10.20;;;13.00;99.90;;;;;;5041979;28;20049;-74
2023/11/01 05:23:35;;;;;;;17.70;9.57;;;13.10;99.90;;;;;;5038887;28;20036;-74
2023/11/01 05:26:03;;;;;;;17.70;9.60;;;13.20;99.90;;;;;;5020162;28;20181;-74
2023/11/01 05:28:30;;;;;;;15.20;9.98;;;13.10;99.90;;;;;;5040241;28;20056;-74
2023/11/01 05:30:57;;;;;;;15.40;8.88;;;13.20;99.90;;;;;;5031335;28;20037;-74
2023/11/01 05:33:24;;;;;;;13.68;8.15;;;13.20;99.90;;;;;;5036618;28;20048;-73
2023/11/01 05:35:52;;;;;;;17.50;8.57;;;13.30;99.90;;;;;;5035470;28;20120;-75
2023/11/01 05:38:19;;;;;;;14.60;10.13;;;13.40;99.90;;;;;;5034880;28;20080;-74
2023/11/01 05:40:46;;;;;;;15.40;10.20;;;13.30;99.90;;;;;;5035957;28;20496;-75
2023/11/01 05:43:13;;;;;;;15.48;9.52;;;13.20;99.90;;;;;;5040418;28;20096;-76
2023/11/01 05:45:41;;;;;;;17.00;8.18;;;13.20;99.90;;;;;;5039858;28;20051;-74
2023/11/01 05:48:08;;;;;;;16.15;8.38;;;12.80;99.90;;;;;;5032417;28;20045;-74
2023/11/01 05:50:36;;;;;;;15.18;9.68;;;12.80;99.90;;;;;;5028331;28;20057;-72
2023/11/01 05:53:08;;;;;;;34.67;23.80;;;13.10;99.90;;;;;;5033718;28;20045;-74
2023/11/01 05:55:37;;;;;;;31.55;19.27;;;13.30;99.90;;;;;;5039193;28;20397;-74
2023/11/01 05:58:25;;;;;;;271.52;140.43;;;13.40;99.90;;;;;;5034286;28;20037;-75
2023/11/01 06:00:53;;;;;;;170.43;98.22;;;13.50;99.90;;;;;;5035383;28;20045;-77
2023/11/01 06:03:24;;;;;;;252.82;147.20;;;13.60;99.90;;;;;;5030611;28;20064;-73
2023/11/01 06:05:52;;;;;;;35.72;23.10;;;13.70;99.90;;;;;;5055708;28;20038;-75
2023/11/01 06:08:20;;;;;;;20.55;13.98;;;13.50;99.90;;;;;;5031164;28;20053;-73
2023/11/01 06:10:48;;;;;;;18.63;13.88;;;13.50;99.90;;;;;;5035944;28;20649;-74
2023/11/01 06:13:15;;;;;;;21.92;12.85;;;13.60;99.90;;;;;;5029882;28;20516;-75
2023/11/01 06:15:42;;;;;;;27.27;13.05;;;13.20;99.90;;;;;;5034286;28;20045;-74
2023/11/01 06:18:09;;;;;;;16.90;11.70;;;13.10;99.90;;;;;;5044637;28;20384;-75
2023/11/01 06:20:37;;;;;;;18.13;10.75;;;13.00;99.90;;;;;;5030222;28;20092;-75
2023/11/01 06:23:04;;;;;;;14.95;10.40;;;13.20;99.90;;;;;;5019034;28;20116;-74
2023/11/01 06:25:32;;;;;;;18.10;12.38;;;13.40;99.90;;;;;;5035139;28;20038;-76
2023/11/01 06:27:59;;;;;;;14.38;9.65;;;13.50;99.90;;;;;;5036210;28;20053;-75
2023/11/01 06:30:26;;;;;;;14.55;9.75;;;13.40;99.90;;;;;;5035999;28;20409;-74
2023/11/01 06:32:54;;;;;;;18.13;11.52;;;13.40;99.90;;;;;;5036378;28;20653;-73
2023/11/01 06:35:21;;;;;;;21.08;12.77;;;13.60;99.90;;;;;;5039216;28;20115;-73
2023/11/01 06:37:48;;;;;;;22.05;13.50;;;13.70;99.90;;;;;;5033794;28;20041;-73
2023/11/01 06:40:16;;;;;;;17.35;11.65;;;13.90;99.90;;;;;;5050088;28;20120;-78
2023/11/01 06:42:43;;;;;;;20.45;13.57;;;13.90;99.90;;;;;;5041600;28;20106;-76
2023/11/01 06:45:11;;;;;;;99.30;58.15;;;13.90;99.90;;;;;;5033795;28;20065;-72
2023/11/01 06:47:39;;;;;;;262.52;135.13;;;14.10;99.90;;;;;;5038513;28;20500;-72
2023/11/01 06:50:07;;;;;;;166.98;88.70;;;14.20;99.90;;;;;;5036353;28;20044;-75
2023/11/01 06:52:34;;;;;;;30.38;20.45;;;14.30;99.90;;;;;;5039093;28;20091;-74
2023/11/01 06:55:02;;;;;;;15.73;11.75;;;14.40;99.90;;;;;;5043525;28;20060;-75
2023/11/01 06:57:29;;;;;;;13.20;7.97;;;14.20;99.90;;;;;;5042500;28;20056;-74
2023/11/01 06:59:56;;;;;;;9.77;6.45;;;14.30;99.90;;;;;;5041296;28;20121;-73
2023/11/01 07:02:23;;;;;;;12.55;6.40;;;14.50;99.90;;;;;;5041618;28;20569;-76
2023/11/01 07:04:51;;;;;;;16.25;6.63;;;14.70;99.90;;;;;;5051187;28;20049;-73
2023/11/01 07:07:18;;;;;;;11.25;5.95;;;14.80;99.90;;;;;;5040837;28;20037;-77
2023/11/01 07:09:46;;;;;;;10.98;5.93;;;14.90;99.90;;;;;;5012266;28;20156;-75
2023/11/01 07:12:14;;;;;;;11.07;5.57;;;15.00;99.90;;;;;;5055713;28;20055;-76
2023/11/01 07:14:41;;;;;;;8.65;6.20;;;15.20;99.90;;;;;;5038310;28;20091;-75
2023/11/01 07:17:08;;;;;;;9.35;5.18;;;15.30;99.90;;;;;;5038872;28;20114;-74
2023/11/01 07:19:35;;;;;;;13.02;6.32;;;15.30;99.90;;;;;;5038062;28;20056;-75
2023/11/01 07:22:03;;;;;;;14.93;5.78;;;15.50;99.90;;;;;;5041449;28;20046;-75
2023/11/01 07:24:31;;;;;;;10.23;5.75;;;15.70;99.90;;;;;;5036195;28;20041;-75
2023/11/01 07:26:58;;;;;;;15.52;5.90;;;15.80;99.90;;;;;;5040826;28;20041;-74
2023/11/01 07:29:25;;;;;;;11.57;6.60;;;15.70;99.90;;;;;;5042891;28;20041;-76
2023/11/01 07:31:56;;;;;;;9.75;6.20;;;15.50;99.90;;;;;;5041444;28;20049;-76
2023/11/01 07:34:24;;;;;;;13.18;6.28;;;15.50;99.90;;;;;;5055174;28;20068;-75
2023/11/01 07:36:53;;;;;;;14.80;5.93;;;15.90;99.90;;;;;;5039311;28;20056;-75
2023/11/01 07:39:20;;;;;;;8.85;5.80;;;16.30;99.90;;;;;;5040107;28;20033;-75
2023/11/01 07:41:48;;;;;;;10.20;5.45;;;16.40;99.90;;;;;;5019551;28;20392;-74
2023/11/01 07:44:15;;;;;;;8.63;5.82;;;16.40;99.90;;;;;;5049958;28;20050;-76
2023/11/01 07:46:44;;;;;;;15.13;8.20;;;16.50;99.90;;;;;;5038216;28;20048;-76
2023/11/01 07:49:11;;;;;;;19.23;9.50;;;16.60;99.90;;;;;;5038886;28;20049;-76
2023/11/01 07:51:38;;;;;;;17.45;10.20;;;16.50;99.90;;;;;;5043397;28;20488;-77
2023/11/01 07:54:06;;;;;;;21.15;11.63;;;16.40;99.90;;;;;;5036811;28;20053;-77
2023/11/01 07:56:33;;;;;;;19.38;11.80;;;16.50;99.90;;;;;;5037843;28;20037;-76
2023/11/01 07:59:00;;;;;;;16.48;10.23;;;16.70;99.90;;;;;;5020002;28;20393;-75
2023/11/01 08:01:27;;;;;;;16.30;10.90;;;16.80;99.90;;;;;;5042111;28;20053;-77
2023/11/01 08:03:54;;;;;;;17.55;10.07;;;16.90;99.90;;;;;;5041868;28;20127;-76
2023/11/01 08:06:22;;;;;;;16.67;10.20;;;17.00;99.90;;;;;;5039984;28;20045;-76
2023/11/01 08:08:49;;;;;;;16.55;9.77;;;16.80;99.90;;;;;;5039107;28;20048;-76
2023/11/01 08:11:17;;;;;;;24.27;10.90;;;16.70;99.90;;;;;;5035230;28;20484;-75
2023/11/01 08:13:44;;;;;;;21.27;10.60;;;16.70;99.90;;;;;;5055478;28;20120;-75
2023/11/01 08:16:11;;;;;;;16.63;9.85;;;16.90;99.90;;;;;;5024994;28;20149;-77
2023/11/01 08:18:40;;;;;;;16.20;9.45;;;17.10;99.90;;;;;;5037762;28;20132;-76
2023/11/01 08:21:07;;;;;;;17.20;9.35;;;17.30;99.90;;;;;;5040811;28;20048;-75
2023/11/01 08:23:35;;;;;;;13.75;9.20;;;17.30;99.90;;;;;;5035481;28;20457;-76
2023/11/01 08:26:05;;;;;;;13.52;9.48;;;17.40;99.90;;;;;;5034523;28;20037;-73
2023/11/01 08:28:32;;;;;;;16.08;8.75;;;17.40;99.90;;;;;;5048523;28;20436;-74
2023/11/01 08:30:59;;;;;;;11.95;8.65;;;17.40;99.90;;;;;;5031916;28;20115;-76
2023/11/01 08:33:28;;;;;;;13.27;8.52;;;17.60;99.90;;;;;;5035681;28;20128;-76
2023/11/01 08:35:56;;;;;;;12.73;7.72;;;17.90;99.90;;;;;;5031977;28;20037;-75
2023/11/01 08:38:23;;;;;;;15.52;8.98;;;18.10;99.90;;;;;;5037814;28;20469;-74
2023/11/01 08:40:51;;;;;;;19.10;9.48;;;18.30;99.90;;;;;;5035140;28;20886;-74
2023/11/01 08:43:18;;;;;;;13.30;8.60;;;18.50;99.90;;;;;;5047441;28;20092;-74
2023/11/01 08:45:45;;;;;;;18.00;8.68;;;18.70;99.90;;;;;;5019321;28;20041;-73
2023/11/01 08:48:16;;;;;;;12.68;8.20;;;18.70;99.90;;;;;;5036323;28;20521;-76
2023/11/01 08:50:43;;;;;;;12.32;8.27;;;18.80;99.90;;;;;;5017475;28;20041;-75
2023/11/01 08:53:11;;;;;;;17.23;9.10;;;18.90;99.90;;;;;;5017127;28;20045;-75
2023/11/01 08:55:38;;;;;;;37.40;21.98;;;18.70;99.90;;;;;;5016859;28;20041;-73
2023/11/01 08:58:06;;;;;;;29.67;18.50;;;19.00;99.90;;;;;;5019162;28;20138;-74
2023/11/01 09:00:33;;;;;;;30.42;14.43;;;19.50;99.90;;;;;;5020129;28;20034;-73
2023/11/01 09:03:13;;;;;;;25.90;13.98;;;19.60;99.90;;;;;;5019361;28;20041;-75
2023/11/01 09:05:42;;;;;;;14.35;9.15;;;19.90;99.90;;;;;;5035503;28;20277;-73
2023/11/01 09:08:09;;;;;;;14.95;9.80;;;20.00;99.90;;;;;;5027600;28;20042;-76
2023/11/01 09:10:36;;;;;;;24.05;11.60;;;20.10;99.90;;;;;;5031336;28;20129;-72
2023/11/01 09:13:04;;;;;;;13.52;8.32;;;20.20;99.90;;;;;;5032059;28;20599;-75
2023/11/01 09:15:31;;;;;;;24.27;10.98;;;20.40;99.90;;;;;;5047690;28;20061;-75
2023/11/01 09:17:58;;;;;;;16.85;9.10;;;20.40;99.90;;;;;;5065489;28;20053;-75
2023/11/01 09:20:25;;;;;;;14.88;9.55;;;20.60;99.90;;;;;;5029958;28;20044;-73
2023/11/01 09:22:56;;;;;;;14.90;7.20;;;20.60;99.90;;;;;;5025991;28;20444;-81
2023/11/01 09:25:27;;;;;;;13.07;7.10;;;20.20;99.90;;;;;;5028860;28;20064;-81
2023/11/01 09:27:54;;;;;;;16.73;7.28;;;20.50;99.90;;;;;;5033049;28;20067;-79
2023/11/01 09:30:22;;;;;;;13.30;6.40;;;20.70;99.90;;;;;;5031974;28;20050;-78
2023/11/01 09:32:49;;;;;;;19.08;7.18;;;20.30;99.90;;;;;;5031316;28;20184;-79
2023/11/01 09:35:16;;;;;;;15.30;7.13;;;20.20;99.90;;;;;;5049184;28;20091;-78
2023/11/01 09:37:44;;;;;;;14.48;5.88;;;20.60;99.90;;;;;;5032523;28;20041;-78
2023/11/01 09:40:12;;;;;;;20.20;6.57;;;20.90;99.90;;;;;;5032392;28;20049;-79
2023/11/01 09:42:39;;;;;;;7.70;3.72;;;21.20;99.90;;;;;;5032067;28;20045;-79
2023/11/01 09:45:10;;;;;;;9.57;4.72;;;21.00;99.90;;;;;;5048405;28;20049;-80
2023/11/01 09:47:38;;;;;;;9.18;3.97;;;20.80;99.90;;;;;;5035633;28;20115;-79
2023/11/01 09:50:07;;;;;;;10.52;4.10;;;20.90;99.90;;;;;;5036246;28;20037;-78
2023/11/01 09:52:35;;;;;;;11.85;3.97;;;21.00;99.90;;;;;;5061472;28;20038;-77
2023/11/01 09:55:04;;;;;;;7.47;4.07;;;21.00;99.90;;;;;;5020889;28;20042;-80
2023/11/01 09:57:34;;;;;;;7.57;4.18;;;21.10;99.90;;;;;;5033821;28;20543;-79
2023/11/01 10:00:07;;;;;;;10.85;4.75;;;21.50;99.90;;;;;;5035745;28;20052;-76
2023/11/01 10:02:37;;;;;;;9.88;5.15;;;21.40;99.90;;;;;;5034621;28;20037;-78
2023/11/01 10:05:08;;;;;;;10.90;5.32;;;21.30;99.90;;;;;;5032612;28;20834;-78
2023/11/01 10:07:38;;;;;;;9.02;5.32;;;21.40;99.90;;;;;;5034422;28;20478;-77
2023/11/01 10:10:06;;;;;;;11.63;5.90;;;21.30;99.90;;;;;;5032648;28;20042;-76
2023/11/01 10:12:33;;;;;;;16.52;5.40;;;21.70;99.90;;;;;;5018419;28;20136;-78
2023/11/01 10:15:01;;;;;;;9.73;5.47;;;21.90;99.90;;;;;;5033959;28;20049;-77
2023/11/01 10:17:31;;;;;;;12.70;4.85;;;22.10;99.90;;;;;;5021449;28;20124;-77
2023/11/01 10:19:59;;;;;;;10.90;4.80;;;22.40;99.90;;;;;;5020916;28;20050;-80
2023/11/01 10:22:32;;;;;;;11.57;4.82;;;22.60;99.90;;;;;;5013804;28;20050;-79
2023/11/01 10:25:02;;;;;;;10.68;5.05;;;22.70;99.90;;;;;;5039652;28;20041;-77
2023/11/01 10:27:38;;;;;;;8.93;5.45;;;22.10;99.90;;;;;;5031473;28;20045;-78
2023/11/01 10:30:06;;;;;;;9.82;5.68;;;21.70;99.90;;;;;;5039809;28;20038;-80
2023/11/01 10:32:33;;;;;;;10.82;5.18;;;21.40;99.90;;;;;;5040998;28;20116;-78
2023/11/01 10:35:14;;;;;;;10.15;5.47;;;21.30;99.90;;;;;;5037773;28;20081;-75
2023/11/01 10:37:41;;;;;;;;;;;21.80;99.90;;;;;;5067406;28;20446;-80
2023/11/01 10:40:10;;;;;;;10.20;5.32;;;21.80;99.90;;;;;;5017364;28;19980;-75
2023/11/01 10:42:40;;;;;;;10.68;5.20;;;22.30;99.90;;;;;;5017821;28;20198;-78
2023/11/01 10:45:07;;;;;;;8.68;4.35;;;22.50;99.90;;;;;;5017153;28;20049;-77
2023/11/01 10:47:37;;;;;;;12.60;4.95;;;22.70;99.90;;;;;;5040871;28;20062;-76
2023/11/01 10:50:06;;;;;;;11.50;7.90;;;22.50;99.90;;;;;;5041557;28;20041;-77
2023/11/01 10:52:36;;;;;;;12.13;4.95;;;22.60;99.90;;;;;;5043020;28;20424;-79
2023/11/01 10:55:04;;;;;;;11.13;4.93;;;22.90;99.60;;;;;;5034069;28;20544;-77
2023/11/01 10:57:32;;;;;;;11.10;4.25;;;23.20;98.90;;;;;;5037302;28;20408;-77
2023/11/01 11:00:31;;;;;;;10.25;4.07;;;22.70;98.80;;;;;;5032137;28;20065;-79
2023/11/01 11:03:13;;;;;;;6.80;3.70;;;22.80;99.20;;;;;;5041298;28;20037;-79
2023/11/01 11:05:42;;;;;;;11.30;4.68;;;22.80;98.30;;;;;;5035617;28;20038;-78
2023/11/01 11:08:10;;;;;;;9.77;5.32;;;23.10;98.10;;;;;;5035443;28;20148;-82
2023/11/01 11:10:39;;;;;;;9.68;3.10;;;23.60;97.00;;;;;;5029474;28;20128;-78
2023/11/01 11:13:09;;;;;;;8.70;3.75;;;23.70;96.50;;;;;;5028522;28;20488;-80
2023/11/01 11:18:29;;;;;;;8.65;3.60;;;24.40;95.30;;;;;;5023363;28;20300;-80
2023/11/01 11:20:58;;;;;;;8.32;3.55;;;24.70;94.40;;;;;;5033211;28;20128;-81
2023/11/01 11:23:48;;;;;;;9.48;3.70;;;24.50;93.90;;;;;;5026961;28;20433;-78
2023/11/01 11:26:38;;;;;;;10.40;3.80;;;24.50;93.70;;;;;;5036682;28;20447;-77
2023/11/01 11:29:26;;;;;;;;;;;23.90;93.90;;;;;;5033289;28;20144;-78
2023/11/01 11:32:00;;;;;;;8.68;4.93;;;23.90;94.20;;;;;;5043504;28;19968;-79
2023/11/01 11:34:35;;;;;;;11.27;4.75;;;26.70;91.00;;;;;;5030282;28;20435;-77
2023/11/01 11:37:50;;;;;;;8.57;4.38;;;29.10;82.30;;;;;;5025332;28;20065;-80
2023/11/01 11:40:24;;;;;;;7.50;4.13;;;29.70;78.30;;;;;;5061584;28;20038;-78
2023/11/01 11:42:51;;;;;;;10.38;4.03;;;28.60;77.10;;;;;;5052539;28;20084;-80
2023/11/01 11:45:29;;;;;;;5.25;3.25;;;28.40;78.00;;;;;;5037799;28;20033;-78
2023/11/01 11:47:57;;;;;;;8.23;3.97;;;28.40;78.50;;;;;;5034454;28;20037;-81
2023/11/01 11:50:29;;;;;;;9.55;3.97;;;29.30;75.60;;;;;;5030502;28;20505;-79
2023/11/01 11:53:00;;;;;;;8.82;3.95;;;29.70;73.30;;;;;;5041660;28;20618;-79
2023/11/01 11:55:42;;;;;;;9.05;3.90;;;29.90;72.40;;;;;;5039800;28;20037;-82
2023/11/01 11:58:11;;;;;;;13.63;5.05;;;30.20;69.00;;;;;;5038991;28;20136;-79
2023/11/01 12:00:44;;;;;;;8.48;3.65;;;30.80;67.80;;;;;;5035893;28;20040;-83
2023/11/01 12:03:21;;;;;;;9.38;4.00;;;28.40;70.60;;;;;;5039440;28;20607;-83
2023/11/01 12:05:55;;;;;;;8.48;3.53;;;26.20;76.60;;;;;;5043845;28;20038;-79
2023/11/01 12:08:40;;;;;;;7.03;3.58;;;25.00;79.40;;;;;;5039038;28;20045;-84
2023/11/01 12:11:09;;;;;;;8.48;3.40;;;25.10;79.20;;;;;;5030125;28;20053;-80
2023/11/01 12:13:47;;;;;;;9.90;3.80;;;25.00;78.30;;;;;;5037352;28;20131;-85
2023/11/01 12:16:29;;;;;;;7.43;3.22;;;25.40;78.40;;;;;;5034743;28;20046;-82
2023/11/01 12:19:26;;;;;;;12.50;3.78;;;25.10;80.00;;;;;;5037341;28;20063;-83
2023/11/01 12:21:55;;;;;;;6.18;3.53;;;25.10;79.50;;;;;;5034774;28;20059;-81
2023/11/01 12:24:28;;;;;;;7.57;3.73;;;25.20;80.10;;;;;;5035134;28;20501;-84
2023/11/01 12:27:04;;;;;;;7.53;4.20;;;25.20;79.00;;;;;;5037046;28;20037;-82
2023/11/01 12:29:35;;;;;;;8.98;6.60;;;25.40;80.10;;;;;;5032793;28;20490;-85
2023/11/01 12:32:14;;;;;;;8.43;4.68;;;27.70;77.90;;;;;;5035043;28;20045;-86
2023/11/01 12:34:50;;;;;;;8.93;3.42;;;30.70;71.40;;;;;;5038710;28;20126;-80
2023/11/01 12:37:24;;;;;;;8.73;4.10;;;31.70;68.00;;;;;;5035821;28;20044;-84
2023/11/01 12:40:11;;;;;;;10.07;3.75;;;32.80;65.00;;;;;;5033263;28;20040;-83
2023/11/01 12:42:49;;;;;;;8.23;4.05;;;32.50;62.60;;;;;;5036051;28;20098;-83
2023/11/01 12:45:18;;;;;;;6.43;3.90;;;30.60;64.50;;;;;;5035860;28;20993;-84